Cochrane, WI

3:12 AM CDT on July 22, 2014 (GMT -0500)
Robinson Lake (KMNWABAS5) Elev 696 ft | 44.36 °N, 92.00 °W | Change Station

Current weather conditions updated 7 minutes ago

Light Drizzle
Light Drizzle
77.4 °F
Feels Like 79 °F
N
7.8
Wind Variable Wind from South

Today is forecast to be Cooler than yesterday.

Today
High -- | Low -- °F
--% Chance of Precip.
Yesterday
High -- | Low -- °F
Precip. -- in
5:44 AM 8:42 PM
Waning Crescent, 19% visible
Pressure 29.87 in
Visibility 10.0 miles
Clouds Scattered Clouds 3300 ft
Heat Index 79 °F
Dew Point 74 °F
Humidity 88%
Rainfall 0.00 in
Snow Depth Not available.
UV 0 out of 12
Pollen 6.30 out of 12
Air Quality Not available.
Flu Activity Sporadic
METAR KONA 220756Z AUTO 15006KT 10SM -DZ SCT033 25/21 A2987 RMK AO2 LTG DSNT N

More Conditions Fewer Conditions

Pressure 29.87 in
Visibility 10.0 miles
Clouds Scattered Clouds 3300 ft
Heat Index 79 °F
Dew Point 74 °F
Humidity 88%
Rainfall 0.00 in
Snow Depth Not available.
UV 0 out of 12
Pollen 6.30 out of 12
Air Quality Not available.
Flu Activity Sporadic
METAR KONA 220756Z AUTO 15006KT 10SM -DZ SCT033 25/21 A2987 RMK AO2 LTG DSNT N

More Conditions Fewer Conditions

10-Day Weather Forecast

LIGHTNING

Thunderstorms are forecast for your area. Cloud conditions might be right for producing strikes in the next few days, though lightning itself cannot be forecasted.

Lightning is a visible electrical discharge produced by a thunderstorm, based on the build up of oppositely charged particles within a cloud and from cloud to ground.

Know how to stay safe in a lightning storm.

Check out these Lightning WunderPhotos!

Almanac

Astronomy

Jul. 22, 2014 Rise Set
Actual Time 5:44 AM CDT 8:42 PM CDT
Civil Twilight 5:09 AM CDT 9:17 PM CDT
Nautical Twilight 4:25 AM CDT 10:01 PM CDT
Astronomical Twilight 3:33 AM CDT 10:52 PM CDT
Moon 2:19 AM CDT 5:19 PM CDT
Length of Visible Light 16h 07m
Length of Day
14h 58m
Tomorrow will be 1m 58s shorter.
Waning Crescent, 19% of the Moon is Illuminated
Today
Waning Crescent
Jul 26
New
Aug 3
First Quarter
Aug 10
Full
Aug 17
Last Quarter

Today's Extremes

State Highs State Lows

Community

WunderPhotos

Upload Photos

1,736,196 photos uploaded!

Nearby

Snow Depth

Station Depth Elevation
No new snow has been reported.

Earthquake Activity

City Distance Mag. Time & Date
No recent earthquake activity has been reported nearby.
Minimum magnitude displayed is 2.5.

Coastal Water Temperatures

Place Temperature
No Stations Reporting

Nearby Weather Stations

Station Location Temp. Heat Index Dew Point Humidity Wind Precip. Elev Updated Type
Robinson Lake, Wabasha, MN 77.4 °F 79 °F 74 °F 88% South  at  7.8 mph - / hr 696 ft 3:05 AM CDT Normal
Minnesota, Altura, MN 76.6 °F 78 °F 69 °F 78% South  at  3.8 mph 0.00 in / hr 1165 ft 3:12 AM CDT Rapid Fire
Enterprise Valley, Lewiston, MN 76.1 °F 76 °F 72 °F 88% SSW  at  8.9 mph - / hr 1135 ft 3:01 AM CDT Normal

Show More Stations Show Fewer Stations